createdAt,value
2018-02-21T00:12:11.912Z,47.10
2018-02-21T00:32:48.410Z,37.43
2018-02-21T00:53:23.686Z,47.70
2018-02-21T01:13:59.045Z,47.30
2018-02-21T01:34:37.928Z,38.08
2018-02-21T01:55:14.128Z,38.87
2018-02-21T02:15:47.771Z,52.77
2018-02-21T02:36:23.832Z,41.72
2018-02-21T02:57:00.845Z,42.30
2018-02-21T03:17:40.417Z,34.53
2018-02-21T03:38:17.536Z,43.53
2018-02-21T03:58:55.871Z,37.60
2018-02-21T04:19:32.060Z,35.73
2018-02-21T04:40:07.086Z,39.80
2018-02-21T05:00:44.448Z,50.10
2018-02-21T05:21:20.647Z,57.22
2018-02-21T05:41:52.842Z,64.22
2018-02-21T06:02:27.189Z,57.55
2018-02-21T06:23:01.253Z,56.72
2018-02-21T06:43:32.828Z,49.63
2018-02-21T07:04:06.860Z,62.28
2018-02-21T07:24:42.292Z,63.85
2018-02-21T07:45:16.510Z,69.95
2018-02-21T08:05:49.293Z,67.90
2018-02-21T08:26:26.720Z,60.92
2018-02-21T08:47:01.987Z,58.63
2018-02-21T09:07:38.182Z,46.53
2018-02-21T09:28:13.454Z,61.47
2018-02-21T09:48:51.807Z,41.70
2018-02-21T10:09:27.067Z,33.67
2018-02-21T10:30:05.425Z,41.43
2018-02-21T10:50:37.619Z,44.77
2018-02-21T11:11:10.767Z,38.40
2018-02-21T11:31:51.842Z,49.40
2018-02-21T11:52:25.893Z,44.43
2018-02-21T12:13:03.921Z,42.90
2018-02-21T12:33:39.500Z,34.40
2018-02-21T12:54:13.040Z,40.37
2018-02-21T13:14:42.976Z,32.07
2018-02-21T13:35:19.476Z,30.90
2018-02-21T14:13:52.111Z,31.87
2018-02-21T14:34:28.302Z,22.67
2018-02-21T14:55:03.579Z,48.20
2018-02-21T15:15:40.098Z,31.40
2018-02-21T15:36:13.317Z,28.73
2018-02-21T15:56:47.245Z,31.30
2018-02-21T16:17:24.779Z,32.70
2018-02-21T16:37:57.993Z,31.87
2018-02-21T16:58:33.983Z,28.40
2018-02-21T17:19:11.491Z,38.40
2018-02-21T17:39:46.946Z,26.10
2018-02-21T18:00:18.569Z,25.90
2018-02-21T18:20:52.917Z,25.07
2018-02-21T18:41:26.965Z,26.00
2018-02-21T19:02:02.548Z,28.20
2018-02-21T19:22:37.505Z,23.70
2018-02-21T19:43:12.789Z,24.40
2018-02-21T20:03:48.994Z,23.80
2018-02-21T20:24:31.620Z,24.02
2018-02-21T20:45:07.512Z,27.25
2018-02-21T21:47:20.352Z,24.20
2018-02-21T22:07:55.973Z,24.63
2018-02-21T22:28:29.977Z,29.05
2018-02-21T22:49:03.638Z,38.30
2018-02-21T23:09:38.680Z,32.13
2018-02-21T23:30:12.720Z,38.72
2018-02-21T23:50:45.845Z,37.50
